In Rescue
 
Open Full Screen Window  High Contrast Mode
Wind Gusting 00 knots
09
September 18, 2020 9:55 PM EDT
Weather Information
Wind Direction
  340 °
Wind Speed
  09 kt (10 mph)
Wind Gust
  00 kt (0 mph)
Altimeter
30.16 in
Visibility
10 SM
Temperature
13° C
55° F
Dewpoint
-00° C
32° F
Humidity
41%
1hr Rain Fall
00.00 in.
24hr Rain Fall
00.00 in.
Sky Condition
Clear
VFR

METAR KUKT 190155Z AUTO 34009KT 10SM CLR 13/M00 A3016 RMK A01

FAA Disclaimer: The data displayed is for advisory purposes only and is not to be used for flight planning or operations.